Latest Weather Observations for Mudgee

IDN60801

Issued at 6:04 pm EST Wednesday 27 May 2015 (issued every 30 minutes, with the page automatically refreshed every 10 minutes)

About weather observations | Map of weather stations | Latest weather observations for NSW | Other Formats
Station Details ID: 062101 Name: MUDGEE AIRPORT AWS Lat: -32.56 Lon: 149.61 Height: 471.0 m
Data from the previous 72 hours. | See also: Recent months at Mudgee
Date/Time
EST
Temp
°C
App
Temp
°C
Dew
Point
Rel
Hum
%
Delta-T
°C
Wind Press
QNH
hPa
Press
MSL
hPa
Rain
since 9 am
mm
Dir
 
Spd
km/h
Gust
km/h
Spd
kts
Gust
kts
27/06:00pm 12.6 12.2 8.1 74 2.3 CALM 0 0 0 0 1023.9 1023.8 0.0
27/05:30pm 12.7 11.2 8.4 75 2.2 WNW 6 7 3 4 1023.9 1023.8 0.0
27/05:00pm 13.6 13.1 7.8 68 2.9 CALM 0 0 0 0 1023.5 1023.5 0.0
27/04:30pm 14.0 12.3 8.2 68 3.0 WNW 7 13 4 7 1023.3 1023.3 0.0
27/04:00pm 14.7 12.0 7.5 62 3.6 WNW 11 15 6 8 1023.3 1023.3 0.0
27/03:30pm 15.2 13.0 7.7 61 3.8 W 9 13 5 7 1023.2 1023.2 0.0
27/03:00pm 15.4 12.3 7.2 58 4.1 W 13 17 7 9 1023.4 1023.4 0.0
27/02:30pm 16.3 13.4 8.3 59 4.2 WNW 13 17 7 9 1023.6 1023.6 0.0
27/02:00pm 15.5 13.5 8.5 63 3.6 NW 9 13 5 7 1024.0 1023.9 0.0
27/01:30pm 15.5 13.1 8.5 63 3.6 NNW 11 17 6 9 1024.1 1024.0 0.0
27/01:00pm 15.2 13.0 8.0 62 3.7 NW 9 17 5 9 1024.6 1024.6 0.0
27/12:30pm 14.7 13.1 8.0 64 3.4 NW 6 9 3 5 1024.8 1024.8 0.0
27/12:00pm 14.0 12.3 7.5 65 3.3 WSW 6 9 3 5 1025.2 1025.2 0.0
27/11:30am 13.6 12.2 8.7 72 2.5 WNW 6 13 3 7 1025.8 1025.8 0.0
27/11:00am 12.7 12.0 10.1 84 1.4 ENE 4 7 2 4 1026.3 1026.3 0.0
27/10:30am 10.1 9.0 9.9 99 0.1 WNW 6 9 3 5 1026.8 1026.8 0.0
27/10:18am 9.3 9.1 9.2 99 0.1 CALM 0 2 0 1 1026.8 1026.8 0.0
27/10:00am 8.7 8.0 8.6 99 0.0 WNW 2 7 1 4 1026.6 1026.6 0.0
27/09:30am 7.3 5.5 7.2 99 0.0 N 6 7 3 4 1026.5 1026.5 0.0
27/09:00am 6.3 5.0 6.2 99 0.0 S 2 6 1 3 1026.5 1026.5 0.0
27/08:30am 5.2 3.3 5.1 99 0.0 S 4 7 2 4 1026.2 1026.2 0.0
27/08:00am 4.0 2.6 3.7 98 0.1 CALM 0 0 0 0 1025.9 1025.9 0.0
27/07:30am 3.7 2.3 3.4 98 0.1 CALM 0 0 0 0 1025.9 1025.9 0.0
27/07:00am 3.3 1.8 3.0 98 0.1 CALM 0 0 0 0 1025.8 1025.8 0.0
27/06:30am 4.0 0.9 3.7 98 0.1 NE 9 11 5 6 1025.2 1025.2 0.0
27/06:00am 4.6 3.0 4.3 98 0.1 ESE 2 7 1 4 1025.4 1025.4 0.0
27/05:30am 4.6 2.6 4.3 98 0.1 ENE 4 7 2 4 1025.0 1025.0 0.0
27/05:19am 4.2 2.9 3.9 98 0.1 CALM 0 0 0 0 1025.1 1025.1 0.0
27/05:09am 4.1 2.7 3.8 98 0.1 CALM 0 7 0 4 1025.1 1025.1 0.0
27/05:00am 4.0 0.9 3.7 98 0.1 NE 9 11 5 6 1024.9 1024.9 0.0
27/04:30am 3.7 1.9 3.4 98 0.1 ENE 2 6 1 3 1025.2 1025.2 0.0
27/04:00am 3.2 1.3 2.9 98 0.1 NE 2 7 1 4 1025.4 1025.4 0.0
27/03:43am 4.9 2.6 4.6 98 0.1 NE 6 7 3 4 1025.2 1025.2 0.0
27/03:40am 5.1 2.6 4.8 98 0.1 NE 7 9 4 5 1025.1 1025.1 0.0
27/03:30am 5.6 3.2 5.3 98 0.1 NE 7 9 4 5 1025.2 1025.2 0.0
27/03:00am 5.8 4.8 5.5 98 0.1 CALM 0 0 0 0 1025.5 1025.5 0.0
27/02:54am 5.7 4.7 5.4 98 0.1 CALM 0 0 0 0 1025.6 1025.6 0.0
27/02:30am 7.3 6.6 7.0 98 0.1 CALM 0 6 0 3 1025.6 1025.6 0.0
27/02:00am 7.4 6.7 7.1 98 0.1 CALM 0 0 0 0 1026.2 1026.2 0.0
27/01:30am 7.8 6.8 7.5 98 0.1 SW 2 6 1 3 1025.8 1025.8 0.0
27/01:00am 8.2 7.7 7.9 98 0.1 CALM 0 0 0 0 1025.7 1025.7 0.0
27/12:30am 8.2 7.0 7.9 98 0.1 ENE 4 7 2 4 1026.0 1026.0 0.0
27/12:00am 7.9 6.2 7.6 98 0.1 NNE 6 7 3 4 1026.5 1026.5 0.0
 
Date/Time
EST
Temp
°C
App
Temp
°C
Dew
Point
Rel
Hum
%
Delta-T
°C
Wind Press
QNH
hPa
Press
MSL
hPa
Rain
since 9 am
mm
Dir
 
Spd
km/h
Gust
km/h
Spd
kts
Gust
kts
26/11:30pm 7.8 6.8 7.5 98 0.1 E 2 6 1 3 1026.6 1026.6 0.0
26/11:00pm 7.7 6.0 7.4 98 0.1 ENE 6 7 3 4 1026.8 1026.8 0.0
26/10:30pm 7.3 5.3 7.0 98 0.1 NNW 7 9 4 5 1027.1 1027.1 0.0
26/10:00pm 8.2 6.4 7.9 98 0.1 SSE 7 9 4 5 1026.9 1026.9 0.0
26/09:30pm 8.3 7.5 8.0 98 0.1 N 2 7 1 4 1027.2 1027.2 0.0
26/09:00pm 7.9 5.6 7.6 98 0.1 NNE 9 13 5 7 1027.0 1027.0 0.0
26/08:30pm 7.9 6.6 7.6 98 0.1 NNW 4 9 2 5 1027.1 1027.1 0.0
26/08:00pm 8.2 6.6 7.9 98 0.1 N 6 11 3 6 1027.0 1027.0 0.0
26/07:30pm 8.9 6.8 8.3 96 0.3 NNE 9 11 5 6 1027.1 1027.1 0.0
26/07:00pm 9.9 8.0 9.0 94 0.5 NNE 9 11 5 6 1026.9 1026.9 0.0
26/06:30pm 11.3 10.3 9.0 86 1.2 ESE 4 6 2 3 1026.7 1026.7 0.0
26/06:00pm 11.5 10.6 9.1 85 1.2 ESE 4 6 2 3 1026.8 1026.8 0.0
26/05:30pm 11.3 9.7 8.7 84 1.3 NNW 7 9 4 5 1026.9 1026.9 0.0
26/05:00pm 11.7 10.1 8.6 81 1.6 NW 7 11 4 6 1026.7 1026.7 0.0
26/04:30pm 12.7 12.3 8.4 75 2.2 CALM 0 0 0 0 1026.5 1026.5 0.0
26/04:00pm 13.4 11.8 8.0 70 2.7 N 6 9 3 5 1026.2 1026.2 0.0
26/03:30pm 13.7 12.9 8.1 69 2.9 NE 2 7 1 4 1026.2 1026.2 0.0
26/03:00pm 13.9 12.7 7.9 67 3.0 N 4 7 2 4 1026.6 1026.6 0.0
26/02:30pm 14.0 11.9 8.2 68 3.0 N 9 13 5 7 1026.8 1026.8 0.0
26/02:00pm 14.0 12.4 7.8 66 3.1 NW 6 7 3 4 1027.2 1027.2 0.0
26/01:30pm 13.6 11.7 7.6 67 3.0 NW 7 11 4 6 1027.6 1027.6 0.0
26/01:00pm 13.0 10.9 8.3 73 2.4 NNW 9 11 5 6 1027.9 1028.0 0.0
26/12:30pm 12.0 9.8 7.9 76 2.1 NNW 9 13 5 7 1028.5 1028.5 0.0
26/12:00pm 11.1 10.6 7.8 80 1.6 CALM 0 0 0 0 1028.7 1028.7 0.0
26/11:30am 10.4 9.8 7.5 82 1.4 CALM 0 0 0 0 1029.3 1029.3 0.0
26/11:00am 9.6 9.1 7.7 88 0.9 CALM 0 0 0 0 1029.9 1030.0 0.0
26/10:30am 8.6 8.2 8.2 97 0.2 CALM 0 0 0 0 1030.3 1030.4 0.0
26/10:00am 7.3 6.6 7.0 98 0.1 CALM 0 6 0 3 1030.3 1030.4 0.0
26/09:30am 5.8 3.6 5.5 98 0.1 S 6 7 3 4 1030.5 1030.6 0.0
26/09:00am 4.9 3.3 4.6 98 0.1 WSW 2 6 1 3 1030.5 1030.6 0.0
26/08:30am 3.8 1.3 3.5 98 0.1 NW 6 7 3 4 1030.3 1030.4 0.0
26/08:00am 3.5 2.0 3.2 98 0.1 CALM 0 0 0 0 1030.1 1030.2 0.0
26/07:30am 2.3 0.6 2.0 98 0.1 CALM 0 0 0 0 1030.0 1030.1 0.0
26/07:00am 0.7 -1.2 0.4 98 0.1 CALM 0 0 0 0 1029.8 1029.9 0.0
26/06:30am 0.6 -1.3 0.3 98 0.1 CALM 0 0 0 0 1029.6 1029.6 0.0
26/06:00am 0.5 -1.5 0.2 98 0.1 CALM 0 0 0 0 1029.2 1029.2 0.0
26/05:30am 1.2 -0.6 0.9 98 0.1 CALM 0 0 0 0 1029.0 1029.0 0.0
26/05:00am 1.7 -0.1 1.4 98 0.1 CALM 0 0 0 0 1029.1 1029.1 0.0
26/04:30am 2.5 0.9 2.2 98 0.1 CALM 0 0 0 0 1029.3 1029.3 0.0
26/04:00am 2.9 1.3 2.6 98 0.1 CALM 0 0 0 0 1029.4 1029.4 0.0
26/03:30am 2.1 0.4 1.8 98 0.1 CALM 0 0 0 0 1029.5 1029.5 0.0
26/03:00am 3.4 1.9 3.1 98 0.1 CALM 0 0 0 0 1029.8 1029.9 0.0
26/02:30am 3.1 0.4 2.8 98 0.1 NNE 6 7 3 4 1030.0 1030.1 0.0
26/02:00am 3.8 2.4 3.5 98 0.1 CALM 0 7 0 4 1029.9 1030.0 0.0
26/01:30am 4.1 1.4 3.8 98 0.1 NE 7 11 4 6 1029.6 1029.6 0.0
26/01:00am 4.5 3.2 4.2 98 0.1 CALM 0 0 0 0 1029.8 1029.9 0.0
26/12:30am 5.0 3.1 4.7 98 0.1 NNE 4 7 2 4 1030.3 1030.4 0.0
26/12:00am 5.4 4.3 5.1 98 0.1 CALM 0 0 0 0 1030.4 1030.5 0.0
 
Date/Time
EST
Temp
°C
App
Temp
°C
Dew
Point
Rel
Hum
%
Delta-T
°C
Wind Press
QNH
hPa
Press
MSL
hPa
Rain
since 9 am
mm
Dir
 
Spd
km/h
Gust
km/h
Spd
kts
Gust
kts
25/11:30pm 6.0 5.0 5.7 98 0.1 CALM 0 0 0 0 1030.8 1030.8 0.0
25/11:00pm 6.0 3.9 5.6 97 0.2 NE 6 9 3 5 1030.3 1030.4 0.0
25/10:30pm 6.6 5.2 5.7 94 0.4 ENE 2 7 1 4 1030.7 1030.7 0.0
25/10:00pm 7.7 5.9 7.3 97 0.2 S 6 7 3 4 1030.5 1030.6 0.0
25/09:30pm 7.5 4.3 6.9 96 0.3 NE 13 13 7 7 1030.7 1030.7 0.0
25/09:00pm 8.2 7.0 6.5 89 0.8 E 2 7 1 4 1030.5 1030.6 0.0
25/08:30pm 8.7 6.8 6.8 88 0.9 SSE 6 9 3 5 1030.5 1030.6 0.0
25/08:00pm 9.4 7.1 7.3 87 1.0 NE 9 13 5 7 1030.5 1030.6 0.0
25/07:30pm 10.0 7.6 6.9 81 1.5 NNE 9 9 5 5 1030.8 1030.8 0.0
25/07:00pm 11.7 11.1 7.4 75 2.1 CALM 0 6 0 3 1030.5 1030.6 0.0
25/06:30pm 11.7 10.0 7.6 76 2.0 N 6 9 3 5 1030.3 1030.4 0.0
25/06:00pm 12.1 10.0 6.8 70 2.6 WNW 7 9 4 5 1029.9 1030.0 0.0
25/05:30pm 12.8 10.7 6.6 66 3.0 WNW 7 9 4 5 1029.4 1029.4 0.0
25/05:00pm 14.0 12.0 7.1 63 3.4 W 7 9 4 5 1029.2 1029.2 0.0
25/04:30pm 14.6 11.9 7.2 61 3.7 NW 11 13 6 7 1029.2 1029.2 0.0
25/04:00pm 15.3 12.5 6.8 57 4.2 WNW 11 15 6 8 1029.2 1029.2 0.0
25/03:30pm 16.0 11.9 6.4 53 4.8 WNW 17 20 9 11 1029.5 1029.5 0.0
25/03:00pm 16.4 11.9 6.2 51 5.1 W 19 24 10 13 1029.6 1029.6 0.0
25/02:30pm 16.9 12.8 6.1 49 5.4 WNW 17 22 9 12 1029.6 1029.6 0.0
25/02:00pm 17.1 12.9 7.5 53 4.9 WNW 19 24 10 13 1029.7 1029.8 0.0
25/01:30pm 16.7 12.2 6.8 52 5.0 W 20 28 11 15 1030.1 1030.2 0.0
25/01:00pm 16.3 13.3 7.8 57 4.3 NW 13 22 7 12 1030.5 1030.6 0.0
25/12:30pm 16.0 12.6 7.5 57 4.3 NW 15 22 8 12 1030.9 1030.9 0.0
25/12:00pm 15.7 12.9 8.7 63 3.6 NW 13 20 7 11 1031.3 1031.3 0.0
25/11:30am 14.6 13.4 8.1 65 3.3 WSW 4 9 2 5 1031.8 1031.9 0.0
25/11:00am 13.2 11.0 7.9 70 2.7 SSW 9 11 5 6 1032.1 1032.2 0.0
25/10:30am 12.6 11.0 8.9 78 1.9 S 7 11 4 6 1032.2 1032.3 0.0
25/10:00am 11.0 9.6 8.8 86 1.1 S 6 9 3 5 1032.7 1032.8 0.0
25/09:30am 8.9 8.1 8.0 94 0.4 S 2 7 1 4 1032.9 1032.9 0.0
25/09:00am 7.8 7.2 7.4 97 0.2 CALM 0 0 0 0 1032.7 1032.8 0.0
25/08:30am 7.1 6.4 6.8 98 0.1 CALM 0 0 0 0 1032.5 1032.6 0.0
25/08:00am 5.1 3.2 4.8 98 0.1 NNE 4 7 2 4 1032.6 1032.7 0.0
25/07:30am 4.9 2.9 4.6 98 0.1 SSE 4 7 2 4 1032.2 1032.3 0.0
25/07:00am 3.9 1.7 3.6 98 0.1 S 4 6 2 3 1031.9 1032.0 0.0
25/06:30am 3.4 1.9 3.1 98 0.1 CALM 0 0 0 0 1032.0 1032.1 0.0
25/06:00am 3.0 1.4 2.7 98 0.1 CALM 0 0 0 0 1032.0 1032.1 0.0
25/05:30am 3.7 2.3 3.4 98 0.1 CALM 0 0 0 0 1031.5 1031.5 0.0
25/05:00am 3.9 2.5 3.6 98 0.1 CALM 0 0 0 0 1031.2 1031.2 0.0
25/04:30am 4.6 3.0 4.3 98 0.1 SE 2 6 1 3 1031.2 1031.2 0.0
25/04:00am 4.3 3.0 4.0 98 0.1 CALM 0 0 0 0 1031.1 1031.1 0.0
25/03:30am 4.4 2.7 4.1 98 0.1 E 2 7 1 4 1031.7 1031.8 0.0
25/03:00am 3.4 0.6 3.1 98 0.1 N 7 9 4 5 1031.9 1032.0 0.0
25/02:30am 4.9 3.3 4.6 98 0.1 SE 2 7 1 4 1031.9 1032.0 0.0
25/02:00am 5.5 3.3 5.2 98 0.1 S 6 9 3 5 1032.0 1032.1 0.0
25/01:30am 5.9 4.1 5.6 98 0.1 SSE 4 7 2 4 1032.0 1032.1 0.0
25/01:00am 5.6 3.4 5.3 98 0.1 SE 6 7 3 4 1031.9 1032.0 0.0
25/12:30am 5.7 4.7 5.4 98 0.1 CALM 0 0 0 0 1032.2 1032.3 0.0
25/12:00am 6.0 5.0 5.7 98 0.1 CALM 0 0 0 0 1032.2 1032.3 0.0
 
Date/Time
EST
Temp
°C
App
Temp
°C
Dew
Point
Rel
Hum
%
Delta-T
°C
Wind Press
QNH
hPa
Press
MSL
hPa
Rain
since 9 am
mm
Dir
 
Spd
km/h
Gust
km/h
Spd
kts
Gust
kts
24/11:30pm 5.5 4.4 5.1 97 0.2 CALM 0 0 0 0 1032.9 1032.9 0.0
24/11:00pm 6.9 4.4 6.6 98 0.1 SSE 9 11 5 6 1032.6 1032.7 0.0
24/10:30pm 6.3 5.0 6.0 98 0.1 E 2 7 1 4 1032.4 1032.5 0.0
24/10:00pm 6.8 5.2 6.4 97 0.2 E 4 7 2 4 1032.4 1032.5 0.0
24/09:30pm 7.0 5.7 6.1 94 0.4 SSE 2 7 1 4 1032.3 1032.4 0.0
24/09:00pm 7.4 5.3 6.5 94 0.4 SSW 7 7 4 4 1032.1 1032.2 0.0
24/08:30pm 7.8 6.3 6.6 92 0.6 NE 4 7 2 4 1032.0 1032.1 0.0
24/08:00pm 8.2 6.4 7.1 93 0.5 ENE 6 11 3 6 1031.9 1032.0 0.0
24/07:30pm 8.9 8.3 7.2 89 0.8 CALM 0 0 0 0 1032.0 1032.1 0.0
24/07:00pm 9.4 8.7 7.0 85 1.1 CALM 0 0 0 0 1031.9 1032.0 0.0
24/06:30pm 10.2 9.5 7.1 81 1.5 CALM 0 0 0 0 1031.4 1031.4 0.0

Other Formats:

Comma delimited format used in spreadsheet applications
http://www.bom.gov.au/fwo/IDN60801/IDN60801.94727.axf

JavaScript Object Notation format (JSON) in row-major order
http://www.bom.gov.au/fwo/IDN60801/IDN60801.94727.json